createdAt,value
2019-05-16T00:00:32.040Z,1.20
2019-05-16T00:03:01.964Z,0.77
2019-05-16T00:05:31.855Z,1.23
2019-05-16T00:08:01.822Z,0.93
2019-05-16T00:10:31.737Z,1.17
2019-05-16T00:13:01.667Z,0.73
2019-05-16T00:15:31.566Z,1.27
2019-05-16T00:18:01.468Z,0.80
2019-05-16T00:20:31.396Z,1.00
2019-05-16T00:23:01.259Z,0.70
2019-05-16T00:25:31.109Z,1.00
2019-05-16T00:28:01.072Z,1.13
2019-05-16T00:30:30.990Z,1.13
2019-05-16T00:33:00.862Z,0.97
2019-05-16T00:35:30.642Z,0.90
2019-05-16T00:38:00.639Z,0.97
2019-05-16T00:40:30.498Z,0.80
2019-05-16T00:43:00.379Z,0.90
2019-05-16T00:45:30.208Z,0.80
2019-05-16T00:48:00.073Z,0.83
2019-05-16T00:50:30.016Z,1.63
2019-05-16T00:52:59.925Z,0.70
2019-05-16T00:55:30.478Z,0.90
2019-05-16T00:58:00.641Z,0.90
2019-05-16T01:00:50.419Z,0.90
2019-05-16T01:03:20.858Z,1.03
2019-05-16T01:05:50.713Z,0.90
2019-05-16T01:08:20.655Z,1.33
2019-05-16T01:10:51.381Z,0.80
2019-05-16T01:13:21.706Z,0.80
2019-05-16T01:15:51.582Z,0.80
2019-05-16T01:18:21.521Z,1.07
2019-05-16T01:20:51.380Z,0.83
2019-05-16T01:23:21.249Z,0.80
2019-05-16T01:25:51.105Z,0.93
2019-05-16T01:28:21.027Z,0.93
2019-05-16T01:30:50.912Z,0.77
2019-05-16T01:33:20.886Z,0.90
2019-05-16T01:35:50.715Z,0.90
2019-05-16T01:38:20.629Z,0.70
2019-05-16T01:40:50.444Z,0.90
2019-05-16T01:43:20.418Z,2.67
2019-05-16T01:45:50.234Z,1.40
2019-05-16T01:48:20.099Z,0.73
2019-05-16T01:50:50.107Z,1.67
2019-05-16T01:53:19.916Z,1.20
2019-05-16T01:55:49.701Z,0.80
2019-05-16T01:58:20.383Z,1.37
2019-05-16T02:01:03.046Z,1.43
2019-05-16T02:03:22.165Z,0.90
2019-05-16T02:05:52.108Z,1.10
2019-05-16T02:08:21.990Z,1.03
2019-05-16T02:10:51.777Z,1.00
2019-05-16T02:13:23.316Z,1.10
2019-05-16T02:15:53.358Z,0.90
2019-05-16T02:18:23.265Z,1.27
2019-05-16T02:26:30.610Z,0.97
2019-05-16T02:40:21.109Z,0.93
2019-05-16T02:42:51.608Z,1.10
2019-05-16T02:56:37.426Z,1.30
2019-05-16T02:59:07.338Z,1.23
2019-05-16T03:01:37.211Z,2.43
2019-05-16T03:04:07.313Z,2.10
2019-05-16T03:09:30.488Z,2.70
2019-05-16T03:12:01.894Z,2.60
2019-05-16T03:25:51.307Z,1.43
2019-05-16T03:31:15.188Z,1.40
2019-05-16T03:36:34.454Z,1.70
2019-05-16T03:44:41.084Z,3.27
2019-05-16T03:47:11.306Z,1.80
2019-05-16T03:49:42.187Z,2.00
2019-05-16T03:52:12.292Z,1.70
2019-05-16T03:54:42.227Z,1.57
2019-05-16T03:57:12.047Z,2.17
2019-05-16T03:59:41.913Z,1.90
2019-05-16T04:02:11.726Z,1.83
2019-05-16T04:04:41.884Z,2.33
2019-05-16T04:07:11.845Z,1.90
2019-05-16T04:09:41.719Z,1.70
2019-05-16T04:12:11.591Z,1.80
2019-05-16T04:14:41.499Z,1.73
2019-05-16T04:17:11.449Z,5.73
2019-05-16T04:19:41.703Z,1.90
2019-05-16T04:22:16.127Z,2.80
2019-05-16T04:24:46.084Z,2.20
2019-05-16T04:27:15.949Z,2.57
2019-05-16T04:29:45.815Z,2.40
2019-05-16T04:32:15.686Z,2.10
2019-05-16T04:34:45.533Z,2.17
2019-05-16T04:37:15.502Z,2.50
2019-05-16T04:39:45.324Z,3.10
2019-05-16T04:42:15.202Z,3.00
2019-05-16T04:44:45.001Z,2.30
2019-05-16T04:47:14.965Z,2.50
2019-05-16T04:49:44.892Z,2.60
2019-05-16T04:52:14.790Z,2.33
2019-05-16T04:54:44.696Z,2.43
2019-05-16T04:57:14.530Z,2.20
2019-05-16T04:59:44.342Z,2.03
2019-05-16T05:02:14.244Z,2.30
2019-05-16T05:04:44.142Z,2.53
2019-05-16T05:07:14.141Z,2.50
2019-05-16T05:09:44.098Z,2.63
2019-05-16T05:12:13.935Z,1.80
2019-05-16T05:14:44.047Z,2.40
2019-05-16T05:17:13.909Z,2.00
2019-05-16T05:19:43.669Z,1.93
2019-05-16T05:22:13.613Z,1.97
2019-05-16T05:24:43.502Z,2.33
2019-05-16T05:27:13.454Z,1.70
2019-05-16T05:29:43.315Z,1.63
2019-05-16T05:32:14.345Z,1.63
2019-05-16T05:34:44.549Z,2.90
2019-05-16T05:37:14.670Z,1.80
2019-05-16T05:39:44.523Z,3.00
2019-05-16T05:42:14.380Z,1.70
2019-05-16T05:44:44.237Z,3.53
2019-05-16T05:47:14.081Z,3.07
2019-05-16T05:49:43.942Z,1.40
2019-05-16T05:52:13.864Z,1.87
2019-05-16T05:54:43.660Z,1.80
2019-05-16T05:57:13.619Z,1.53
2019-05-16T05:59:43.807Z,1.80
2019-05-16T06:02:13.641Z,1.70
2019-05-16T06:04:43.456Z,2.67
2019-05-16T06:07:13.339Z,2.00
2019-05-16T06:09:52.396Z,1.50
2019-05-16T06:12:14.759Z,1.60
2019-05-16T06:14:44.882Z,2.10
2019-05-16T06:17:14.673Z,2.03
2019-05-16T06:19:44.614Z,1.70
2019-05-16T06:22:14.566Z,2.07
2019-05-16T06:24:44.426Z,1.10
2019-05-16T06:27:14.286Z,1.67
2019-05-16T06:29:44.274Z,1.80
2019-05-16T06:32:14.044Z,1.50
2019-05-16T06:34:43.919Z,2.50
2019-05-16T06:37:13.882Z,2.30
2019-05-16T06:39:45.496Z,1.70
2019-05-16T06:42:15.473Z,1.83
2019-05-16T06:44:45.294Z,1.23
2019-05-16T06:47:19.659Z,1.90
2019-05-16T06:49:46.678Z,1.40
2019-05-16T06:52:16.569Z,1.60
2019-05-16T06:54:46.602Z,1.33
2019-05-16T06:57:16.415Z,1.23
2019-05-16T06:59:46.215Z,2.20
2019-05-16T07:02:27.738Z,1.10
2019-05-16T07:04:47.650Z,1.40
2019-05-16T07:07:17.462Z,0.80
2019-05-16T07:09:58.072Z,1.63
2019-05-16T07:12:20.289Z,1.93
2019-05-16T07:14:50.659Z,1.30
2019-05-16T07:17:20.762Z,1.43
2019-05-16T07:19:50.700Z,1.70
2019-05-16T07:22:20.663Z,1.10
2019-05-16T07:24:50.786Z,1.20
2019-05-16T07:27:21.886Z,1.33
2019-05-16T07:29:52.025Z,2.00
2019-05-16T07:32:21.868Z,2.40
2019-05-16T07:34:51.836Z,1.27
2019-05-16T07:37:21.735Z,1.27
2019-05-16T07:39:51.555Z,0.90
2019-05-16T07:42:21.412Z,1.20
2019-05-16T07:44:51.468Z,1.00
2019-05-16T07:47:21.374Z,1.47
2019-05-16T07:49:51.302Z,0.70
2019-05-16T07:52:21.180Z,1.80
2019-05-16T07:54:51.132Z,0.83
2019-05-16T07:57:22.892Z,1.37
2019-05-16T07:59:52.508Z,1.57
2019-05-16T08:02:22.279Z,2.50
2019-05-16T08:04:52.264Z,1.37
2019-05-16T08:07:22.067Z,1.43
2019-05-16T08:09:51.943Z,2.43
2019-05-16T08:12:25.996Z,1.40
2019-05-16T08:14:53.530Z,1.93
2019-05-16T08:17:23.400Z,1.57
2019-05-16T08:19:53.333Z,1.80
2019-05-16T08:22:23.255Z,1.90
2019-05-16T08:24:53.194Z,2.70
2019-05-16T08:27:23.004Z,3.23
2019-05-16T08:29:52.970Z,2.83
2019-05-16T08:32:23.231Z,2.70
2019-05-16T08:34:53.168Z,2.70
2019-05-16T08:37:36.820Z,3.33
2019-05-16T08:39:54.672Z,3.97
2019-05-16T08:42:24.570Z,3.30
2019-05-16T08:44:54.440Z,4.37
2019-05-16T08:47:24.241Z,4.50
2019-05-16T08:49:54.188Z,3.53
2019-05-16T08:52:24.059Z,3.47
2019-05-16T08:54:53.934Z,3.10
2019-05-16T08:57:27.817Z,4.27
2019-05-16T08:59:55.431Z,4.20
2019-05-16T09:02:35.505Z,4.07
2019-05-16T09:04:56.868Z,3.60
2019-05-16T09:07:26.731Z,4.30
2019-05-16T09:09:59.996Z,3.40
2019-05-16T09:12:28.128Z,2.67
2019-05-16T09:14:59.410Z,3.00
2019-05-16T09:17:29.517Z,3.03
2019-05-16T09:19:59.326Z,2.63
2019-05-16T09:22:29.163Z,2.80
2019-05-16T09:24:58.982Z,2.73
2019-05-16T09:27:28.981Z,2.93
2019-05-16T09:29:58.929Z,2.30
2019-05-16T09:32:29.236Z,2.43
2019-05-16T09:34:59.115Z,2.50
2019-05-16T09:37:29.044Z,2.60
2019-05-16T09:39:58.899Z,2.43
2019-05-16T09:42:28.845Z,2.17
2019-05-16T09:44:58.687Z,2.67
2019-05-16T09:47:28.683Z,2.27
2019-05-16T09:49:58.571Z,2.60
2019-05-16T09:52:28.462Z,1.90
2019-05-16T09:54:58.418Z,2.07
2019-05-16T09:57:28.338Z,2.20
2019-05-16T09:59:58.282Z,1.63
2019-05-16T10:02:28.321Z,1.70
2019-05-16T10:04:58.365Z,2.07
2019-05-16T10:07:28.572Z,2.17
2019-05-16T10:09:58.769Z,2.43
2019-05-16T10:12:28.768Z,2.10
2019-05-16T10:14:59.775Z,1.87
2019-05-16T10:17:29.819Z,1.60
2019-05-16T10:20:00.094Z,1.83
2019-05-16T10:22:30.389Z,2.03
2019-05-16T10:25:00.213Z,1.83
2019-05-16T10:27:30.288Z,3.43
2019-05-16T10:30:01.273Z,1.30
2019-05-16T10:32:31.642Z,1.30
2019-05-16T10:35:01.493Z,1.00
2019-05-16T10:37:31.392Z,1.10
2019-05-16T10:40:01.207Z,1.20
2019-05-16T10:42:31.261Z,1.20
2019-05-16T10:45:01.271Z,1.03
2019-05-16T10:47:31.471Z,1.30
2019-05-16T10:50:01.571Z,0.97
2019-05-16T10:52:31.443Z,1.40
2019-05-16T10:55:02.716Z,1.53
2019-05-16T10:57:32.801Z,1.20
2019-05-16T11:00:13.011Z,1.00
2019-05-16T11:02:36.418Z,1.30
2019-05-16T11:05:22.613Z,1.40
2019-05-16T11:07:37.789Z,1.10
2019-05-16T11:10:08.164Z,1.40
2019-05-16T11:12:47.634Z,1.30
2019-05-16T11:15:11.858Z,1.30
2019-05-16T11:17:41.815Z,1.70
2019-05-16T11:20:12.019Z,1.10
2019-05-16T11:22:42.140Z,1.23
2019-05-16T11:25:24.696Z,2.03
2019-05-16T11:27:43.607Z,1.10
2019-05-16T11:30:13.711Z,0.90
2019-05-16T11:32:43.689Z,0.87
2019-05-16T11:35:16.916Z,0.70
2019-05-16T11:37:47.142Z,1.00
2019-05-16T11:40:17.990Z,0.70
2019-05-16T11:43:03.944Z,0.80
2019-05-16T11:45:19.851Z,0.90
2019-05-16T11:47:49.765Z,1.00
2019-05-16T11:50:19.897Z,0.77
2019-05-16T11:52:49.732Z,1.07
2019-05-16T11:55:19.767Z,0.90
2019-05-16T11:57:49.599Z,0.70
2019-05-16T12:00:20.129Z,0.80
2019-05-16T12:02:50.086Z,1.00
2019-05-16T12:05:19.960Z,1.23
2019-05-16T12:07:49.807Z,0.80
2019-05-16T12:10:19.584Z,0.87
2019-05-16T12:12:49.498Z,1.80
2019-05-16T12:15:20.262Z,0.50
2019-05-16T12:18:00.873Z,0.50
2019-05-16T12:20:21.878Z,0.50
2019-05-16T12:22:52.679Z,0.60
2019-05-16T12:25:22.508Z,0.50
2019-05-16T12:27:52.351Z,0.57
2019-05-16T12:30:22.343Z,0.50
2019-05-16T12:32:52.208Z,0.50
2019-05-16T12:35:22.003Z,0.50
2019-05-16T12:37:52.097Z,0.50
2019-05-16T12:40:22.064Z,0.60
2019-05-16T12:42:54.287Z,0.50
2019-05-16T12:45:27.241Z,1.13
2019-05-16T12:47:57.257Z,0.60
2019-05-16T12:50:28.512Z,0.70
2019-05-16T12:52:59.041Z,0.80
2019-05-16T12:55:28.978Z,0.50
2019-05-16T12:58:12.313Z,0.53
2019-05-16T13:00:30.707Z,0.77
2019-05-16T13:03:00.592Z,0.60
2019-05-16T13:05:30.444Z,0.57
2019-05-16T13:08:00.323Z,1.40
2019-05-16T13:10:30.220Z,0.53
2019-05-16T13:13:00.023Z,0.60
2019-05-16T13:15:29.964Z,0.83
2019-05-16T13:17:59.906Z,0.80
2019-05-16T13:20:29.801Z,0.97
2019-05-16T13:22:59.681Z,1.63
2019-05-16T13:25:29.584Z,0.50
2019-05-16T13:27:59.447Z,0.60
2019-05-16T13:30:29.545Z,0.60
2019-05-16T13:32:59.386Z,0.60
2019-05-16T13:35:29.449Z,1.03
2019-05-16T13:37:59.304Z,0.60
2019-05-16T13:40:29.138Z,0.60
2019-05-16T13:42:59.083Z,0.60
2019-05-16T13:45:29.102Z,0.87
2019-05-16T13:47:58.980Z,0.50
2019-05-16T13:50:28.750Z,0.80
2019-05-16T13:52:58.727Z,0.60
2019-05-16T13:55:28.630Z,1.00
2019-05-16T13:57:58.564Z,0.63
2019-05-16T14:00:28.671Z,1.97
2019-05-16T14:02:58.569Z,1.63
2019-05-16T14:05:28.416Z,2.80
2019-05-16T14:07:58.252Z,0.70
2019-05-16T14:10:29.633Z,1.60
2019-05-16T14:12:59.622Z,0.70
2019-05-16T14:15:29.574Z,1.87
2019-05-16T14:17:59.444Z,0.83
2019-05-16T14:20:29.472Z,1.37
2019-05-16T14:23:01.685Z,0.90
2019-05-16T14:25:30.889Z,1.03
2019-05-16T14:28:00.769Z,1.53
2019-05-16T14:30:30.698Z,0.83
2019-05-16T14:33:02.362Z,0.73
2019-05-16T14:35:32.456Z,0.97
2019-05-16T14:38:02.370Z,0.60
2019-05-16T14:40:32.197Z,0.50
2019-05-16T14:43:02.096Z,0.70
2019-05-16T14:45:31.993Z,0.60
2019-05-16T14:48:01.874Z,0.70
2019-05-16T14:50:31.805Z,0.50
2019-05-16T14:53:01.670Z,0.67
2019-05-16T14:55:31.517Z,0.57
2019-05-16T14:58:01.497Z,0.87
2019-05-16T15:00:31.665Z,1.17
2019-05-16T15:03:01.547Z,4.33
2019-05-16T15:05:31.492Z,1.97
2019-05-16T15:08:01.503Z,1.00
2019-05-16T15:10:31.373Z,0.57
2019-05-16T15:13:01.280Z,1.00
2019-05-16T15:15:31.125Z,0.60
2019-05-16T15:18:00.968Z,0.93
2019-05-16T15:20:30.962Z,1.60
2019-05-16T15:23:00.914Z,0.97
2019-05-16T15:25:30.706Z,0.67
2019-05-16T15:28:00.663Z,0.50
2019-05-16T15:30:30.518Z,0.70
2019-05-16T15:33:00.430Z,1.00
2019-05-16T15:35:30.633Z,2.00
2019-05-16T15:38:00.640Z,0.67
2019-05-16T15:40:30.411Z,0.70
2019-05-16T15:43:00.396Z,2.07
2019-05-16T15:45:42.987Z,1.00
2019-05-16T15:48:11.004Z,0.80
2019-05-16T15:50:40.933Z,1.50
2019-05-16T15:53:11.020Z,1.83
2019-05-16T15:55:41.665Z,0.63
2019-05-16T15:58:11.499Z,0.97
2019-05-16T16:00:48.709Z,1.03
2019-05-16T16:03:18.917Z,0.60
2019-05-16T16:05:49.048Z,0.60
2019-05-16T16:08:19.120Z,0.63
2019-05-16T16:10:49.152Z,0.60
2019-05-16T16:13:19.845Z,1.43
2019-05-16T16:16:10.689Z,2.10
2019-05-16T16:18:40.801Z,0.60
2019-05-16T16:21:10.766Z,0.70
2019-05-16T16:23:40.688Z,0.50
2019-05-16T16:26:10.492Z,0.77
2019-05-16T16:28:40.374Z,1.00
2019-05-16T16:31:10.237Z,0.60
2019-05-16T16:33:40.129Z,0.97
2019-05-16T16:36:09.969Z,0.67
2019-05-16T16:38:39.841Z,1.00
2019-05-16T16:41:09.725Z,0.70
2019-05-16T16:43:39.590Z,0.80
2019-05-16T16:46:13.416Z,2.47
2019-05-16T16:48:40.972Z,3.73
2019-05-16T16:51:10.760Z,4.13
2019-05-16T16:53:40.608Z,3.40
2019-05-16T16:56:10.465Z,3.57
2019-05-16T16:58:40.232Z,4.20
2019-05-16T17:01:10.239Z,7.20
2019-05-16T17:03:40.058Z,2.10
2019-05-16T17:06:10.010Z,0.93
2019-05-16T17:08:39.890Z,1.87
2019-05-16T17:11:09.830Z,0.70
2019-05-16T17:13:39.701Z,0.53
2019-05-16T17:16:22.147Z,1.30
2019-05-16T17:18:41.316Z,3.17
2019-05-16T17:21:11.327Z,2.40
2019-05-16T17:23:41.229Z,2.97
2019-05-16T17:26:11.013Z,1.67
2019-05-16T17:28:40.918Z,1.10
2019-05-16T17:31:10.911Z,2.57
2019-05-16T17:33:40.830Z,1.00
2019-05-16T17:36:10.714Z,1.03
2019-05-16T17:38:40.634Z,2.83
2019-05-16T17:41:10.571Z,1.03
2019-05-16T17:43:40.553Z,1.13
2019-05-16T17:46:10.493Z,0.90
2019-05-16T17:48:40.216Z,0.90
2019-05-16T17:51:10.143Z,1.30
2019-05-16T17:53:39.943Z,0.70
2019-05-16T17:56:09.819Z,0.80
2019-05-16T17:58:39.668Z,1.20
2019-05-16T18:01:09.862Z,1.27
2019-05-16T18:03:39.703Z,0.97
2019-05-16T18:06:09.606Z,0.83
2019-05-16T18:08:39.468Z,0.70
2019-05-16T18:11:09.350Z,0.67
2019-05-16T18:13:39.218Z,0.70
2019-05-16T18:16:09.097Z,1.47
2019-05-16T18:18:39.099Z,0.90
2019-05-16T18:21:09.165Z,0.93
2019-05-16T18:23:39.032Z,1.17
2019-05-16T18:26:08.896Z,1.33
2019-05-16T18:28:38.715Z,1.13
2019-05-16T18:31:08.758Z,1.10
2019-05-16T18:33:38.775Z,1.80
2019-05-16T18:36:11.543Z,2.80
2019-05-16T18:38:41.552Z,1.70
2019-05-16T18:41:11.406Z,1.40
2019-05-16T18:43:41.335Z,1.80
2019-05-16T18:46:11.263Z,1.30
2019-05-16T18:48:41.525Z,1.30
2019-05-16T18:51:11.328Z,6.70
2019-05-16T18:53:41.158Z,5.87
2019-05-16T18:56:11.094Z,4.23
2019-05-16T18:58:41.076Z,3.13
2019-05-16T19:01:10.888Z,1.40
2019-05-16T19:03:40.707Z,1.60
2019-05-16T19:06:10.646Z,1.37
2019-05-16T19:08:40.488Z,1.87
2019-05-16T19:11:10.506Z,2.37
2019-05-16T19:13:40.347Z,1.07
2019-05-16T19:16:10.238Z,1.87
2019-05-16T19:18:40.189Z,1.37
2019-05-16T19:21:10.172Z,1.30
2019-05-16T19:23:40.003Z,2.07
2019-05-16T19:26:10.037Z,1.43
2019-05-16T19:28:39.962Z,1.33
2019-05-16T19:31:09.834Z,1.57
2019-05-16T19:33:39.693Z,1.43
2019-05-16T19:36:09.753Z,1.27
2019-05-16T19:38:39.656Z,1.10
2019-05-16T19:41:09.535Z,1.00
2019-05-16T19:43:39.319Z,1.17
2019-05-16T19:46:09.273Z,1.20
2019-05-16T19:48:39.196Z,1.77
2019-05-16T19:51:09.250Z,1.93
2019-05-16T19:53:39.114Z,1.50
2019-05-16T19:56:09.053Z,1.17
2019-05-16T19:58:38.831Z,1.03
2019-05-16T20:01:08.812Z,1.17
2019-05-16T20:03:38.625Z,1.03
2019-05-16T20:06:08.523Z,1.00
2019-05-16T20:08:38.386Z,0.90
2019-05-16T20:11:08.344Z,0.80
2019-05-16T20:13:38.181Z,0.90
2019-05-16T20:16:08.447Z,1.27
2019-05-16T20:18:38.345Z,0.80
2019-05-16T20:21:08.305Z,1.43
2019-05-16T20:23:38.152Z,0.80
2019-05-16T20:26:08.039Z,1.23
2019-05-16T20:28:37.930Z,1.10
2019-05-16T20:31:08.156Z,0.90
2019-05-16T20:33:38.244Z,1.20
2019-05-16T20:36:09.538Z,1.30
2019-05-16T20:38:46.555Z,0.67
2019-05-16T20:41:17.112Z,1.20
2019-05-16T20:43:47.466Z,0.87
2019-05-16T20:46:17.514Z,0.83
2019-05-16T20:48:47.461Z,1.37
2019-05-16T20:51:20.062Z,0.77
2019-05-16T20:53:49.772Z,0.50
2019-05-16T20:56:20.049Z,0.80
2019-05-16T20:58:49.935Z,0.80
2019-05-16T21:01:19.809Z,0.70
2019-05-16T21:03:49.638Z,1.00
2019-05-16T21:06:19.607Z,1.60
2019-05-16T21:08:49.767Z,1.87
2019-05-16T21:11:19.792Z,0.90
2019-05-16T21:13:49.560Z,0.80
2019-05-16T21:16:19.537Z,1.63
2019-05-16T21:18:49.446Z,0.73
2019-05-16T21:21:19.485Z,0.97
2019-05-16T21:23:49.539Z,0.77
2019-05-16T21:26:19.320Z,0.90
2019-05-16T21:28:49.213Z,0.70
2019-05-16T21:31:19.370Z,0.80
2019-05-16T21:33:49.546Z,0.80
2019-05-16T21:36:19.529Z,1.17
2019-05-16T21:38:49.369Z,1.40
2019-05-16T21:41:19.161Z,2.53
2019-05-16T21:43:48.998Z,1.13
2019-05-16T21:46:20.181Z,0.83
2019-05-16T21:48:50.270Z,1.00
2019-05-16T21:51:20.148Z,1.10
2019-05-16T21:53:50.000Z,1.47
2019-05-16T21:56:19.908Z,0.80
2019-05-16T21:58:49.826Z,2.17
2019-05-16T22:01:22.645Z,1.00
2019-05-16T22:03:53.677Z,0.80
2019-05-16T22:06:23.540Z,1.00
2019-05-16T22:08:53.443Z,1.00
2019-05-16T22:11:23.384Z,0.80
2019-05-16T22:13:53.314Z,2.50
2019-05-16T22:16:23.196Z,1.00
2019-05-16T22:18:53.062Z,1.20
2019-05-16T22:21:22.991Z,0.93
2019-05-16T22:23:52.885Z,1.03
2019-05-16T22:26:22.931Z,1.00
2019-05-16T22:28:52.759Z,1.20
2019-05-16T22:31:22.699Z,1.10
2019-05-16T22:33:52.637Z,1.17
2019-05-16T22:36:22.481Z,1.63
2019-05-16T22:38:52.347Z,2.67
2019-05-16T22:41:22.309Z,1.30
2019-05-16T22:43:52.136Z,1.30
2019-05-16T22:46:22.099Z,1.40
2019-05-16T22:48:51.885Z,1.40
2019-05-16T22:51:21.762Z,1.50
2019-05-16T22:53:51.606Z,1.17
2019-05-16T22:56:21.523Z,1.17
2019-05-16T22:58:51.420Z,1.30
2019-05-16T23:01:21.413Z,0.77
2019-05-16T23:03:51.255Z,1.00
2019-05-16T23:06:21.215Z,1.27
2019-05-16T23:08:51.039Z,1.20
2019-05-16T23:11:21.064Z,1.03
2019-05-16T23:13:50.940Z,1.20
2019-05-16T23:16:20.790Z,0.90
2019-05-16T23:18:50.611Z,1.10
2019-05-16T23:21:20.430Z,1.17
2019-05-16T23:23:50.230Z,1.27
2019-05-16T23:26:20.159Z,1.93
2019-05-16T23:28:50.022Z,1.50
2019-05-16T23:31:19.886Z,1.70
2019-05-16T23:33:49.691Z,1.13
2019-05-16T23:36:19.528Z,1.20
2019-05-16T23:38:49.382Z,1.13
2019-05-16T23:41:19.221Z,1.30
2019-05-16T23:43:49.085Z,1.30
2019-05-16T23:46:18.948Z,1.70
2019-05-16T23:48:48.842Z,2.50
2019-05-16T23:51:18.661Z,1.40
2019-05-16T23:53:48.605Z,1.33
2019-05-16T23:56:18.462Z,2.90
2019-05-16T23:58:48.471Z,1.80
